createdAt,value
2023-03-24T00:02:01.231Z,2.10
2023-03-24T00:05:06.018Z,2.47
2023-03-24T00:08:08.750Z,2.20
2023-03-24T00:11:12.529Z,1.77
2023-03-24T00:14:14.482Z,1.80
2023-03-24T00:17:17.775Z,1.90
2023-03-24T00:20:22.750Z,2.20
2023-03-24T00:23:32.616Z,2.07
2023-03-24T00:26:38.552Z,2.17
2023-03-24T00:29:41.782Z,2.40
2023-03-24T00:32:45.062Z,2.50
2023-03-24T00:35:48.693Z,2.50
2023-03-24T00:38:50.959Z,2.53
2023-03-24T00:41:52.997Z,1.90
2023-03-24T00:44:55.120Z,2.20
2023-03-24T00:47:58.308Z,2.07
2023-03-24T00:51:03.258Z,2.00
2023-03-24T00:54:06.689Z,2.10
2023-03-24T00:57:09.129Z,1.87
2023-03-24T01:00:14.690Z,2.27
2023-03-24T01:03:18.835Z,2.13
2023-03-24T01:06:22.740Z,2.43
2023-03-24T01:09:24.871Z,2.17
2023-03-24T01:12:36.991Z,2.20
2023-03-24T01:15:39.009Z,2.33
2023-03-24T01:18:40.944Z,1.67
2023-03-24T01:21:44.060Z,2.53
2023-03-24T01:24:46.346Z,2.60
2023-03-24T01:27:49.978Z,2.30
2023-03-24T01:30:54.964Z,1.70
2023-03-24T01:33:56.850Z,2.70
2023-03-24T01:36:59.373Z,2.30
2023-03-24T01:40:02.616Z,2.53
2023-03-24T01:43:05.472Z,1.63
2023-03-24T01:46:19.427Z,2.43
2023-03-24T01:49:22.417Z,2.00
2023-03-24T01:52:27.094Z,2.33
2023-03-24T01:55:30.619Z,2.30
2023-03-24T01:58:33.726Z,1.90
2023-03-24T02:01:36.051Z,1.57
2023-03-24T02:04:42.341Z,2.50
2023-03-24T02:08:12.169Z,2.27
2023-03-24T02:11:14.227Z,2.30
2023-03-24T02:14:17.640Z,2.30
2023-03-24T02:17:37.733Z,2.33
2023-03-24T02:21:04.221Z,1.83
2023-03-24T02:24:23.131Z,1.83
2023-03-24T02:27:55.620Z,1.90
2023-03-24T02:31:16.432Z,2.47
2023-03-24T02:34:37.489Z,2.20
2023-03-24T02:37:58.732Z,2.03
2023-03-24T02:41:17.320Z,2.20
2023-03-24T02:44:26.618Z,1.97
2023-03-24T02:47:44.804Z,2.00
2023-03-24T02:50:49.330Z,2.40
2023-03-24T02:53:51.207Z,2.07
2023-03-24T02:56:59.602Z,2.20
2023-03-24T03:00:10.008Z,1.97
2023-03-24T03:03:38.520Z,1.90
2023-03-24T03:06:44.051Z,2.57
2023-03-24T03:09:58.770Z,2.00
2023-03-24T03:13:02.832Z,2.13
2023-03-24T03:16:09.961Z,2.13
2023-03-24T03:19:21.847Z,1.70
2023-03-24T03:22:26.570Z,1.70
2023-03-24T03:25:32.653Z,1.90
2023-03-24T03:28:37.445Z,1.77
2023-03-24T03:31:43.106Z,1.60
2023-03-24T03:35:16.913Z,1.97
2023-03-24T03:38:26.961Z,2.00
2023-03-24T03:41:28.990Z,2.00
2023-03-24T03:44:31.771Z,2.27
2023-03-24T03:47:34.571Z,2.10
2023-03-24T03:50:38.422Z,2.27
2023-03-24T03:54:02.029Z,2.03
2023-03-24T03:57:04.156Z,1.97
2023-03-24T04:00:08.802Z,2.03
2023-03-24T04:03:41.945Z,1.83
2023-03-24T04:07:22.965Z,1.90
2023-03-24T04:10:44.246Z,1.80
2023-03-24T04:14:08.328Z,2.20
2023-03-24T04:17:52.282Z,2.13
2023-03-24T04:21:07.132Z,2.00
2023-03-24T04:24:19.021Z,2.53
2023-03-24T04:27:46.832Z,2.17
2023-03-24T04:30:56.448Z,1.87
2023-03-24T04:34:15.955Z,2.07
2023-03-24T04:37:26.197Z,2.10
2023-03-24T04:40:29.215Z,2.13
2023-03-24T04:43:36.741Z,2.33
2023-03-24T04:46:39.745Z,1.80
2023-03-24T04:49:41.699Z,1.63
2023-03-24T04:52:43.779Z,1.77
2023-03-24T04:55:54.464Z,1.70
2023-03-24T04:58:57.087Z,1.73
2023-03-24T05:01:58.937Z,2.10
2023-03-24T05:05:01.825Z,1.83
2023-03-24T05:08:04.200Z,2.27
2023-03-24T05:11:06.418Z,1.70
2023-03-24T05:14:08.680Z,1.77
2023-03-24T05:17:10.625Z,2.27
2023-03-24T05:20:12.780Z,2.10
2023-03-24T05:23:14.743Z,1.50
2023-03-24T05:26:16.868Z,1.90
2023-03-24T05:29:19.257Z,1.80
2023-03-24T05:32:21.118Z,1.90
2023-03-24T05:35:23.236Z,1.97
2023-03-24T05:38:25.188Z,1.77
2023-03-24T05:41:27.804Z,1.80
2023-03-24T05:44:29.679Z,2.17
2023-03-24T05:47:32.090Z,1.90
2023-03-24T05:50:34.361Z,1.87
2023-03-24T05:53:36.336Z,2.17
2023-03-24T05:56:38.392Z,2.10
2023-03-24T05:59:40.419Z,1.80
2023-03-24T06:02:44.005Z,2.20
2023-03-24T06:05:48.465Z,1.93
2023-03-24T06:08:50.932Z,2.13
2023-03-24T06:11:52.815Z,1.93
2023-03-24T06:14:54.647Z,2.10
2023-03-24T06:17:57.308Z,2.17
2023-03-24T06:20:59.700Z,2.17
2023-03-24T06:24:03.488Z,2.10
2023-03-24T06:27:09.287Z,2.30
2023-03-24T06:30:13.717Z,2.07
2023-03-24T06:33:16.589Z,2.00
2023-03-24T06:36:18.669Z,2.20
2023-03-24T06:39:20.666Z,1.90
2023-03-24T06:42:22.620Z,2.03
2023-03-24T06:45:24.857Z,2.10
2023-03-24T06:48:27.719Z,2.17
2023-03-24T06:51:29.645Z,2.10
2023-03-24T06:54:31.874Z,2.00
2023-03-24T06:57:34.332Z,2.17
2023-03-24T07:00:37.206Z,2.70
2023-03-24T07:03:39.954Z,2.03
2023-03-24T07:06:58.635Z,2.13
2023-03-24T07:10:06.024Z,2.20
2023-03-24T07:13:08.772Z,1.83
2023-03-24T07:16:11.269Z,2.30
2023-03-24T07:19:13.296Z,2.03
2023-03-24T07:22:15.258Z,2.40
2023-03-24T07:25:20.377Z,2.10
2023-03-24T07:28:22.293Z,1.80
2023-03-24T07:31:24.872Z,2.13
2023-03-24T07:34:29.771Z,2.27
2023-03-24T07:37:31.736Z,2.40
2023-03-24T07:40:35.911Z,1.80
2023-03-24T07:43:37.934Z,2.30
2023-03-24T07:46:40.374Z,1.87
2023-03-24T07:49:42.693Z,2.30
2023-03-24T07:52:48.238Z,1.87
2023-03-24T07:55:50.307Z,1.83
2023-03-24T07:58:52.600Z,1.93
2023-03-24T08:01:58.429Z,1.63
2023-03-24T08:05:02.885Z,1.77
2023-03-24T08:08:06.891Z,2.03
2023-03-24T08:11:09.432Z,2.47
2023-03-24T08:14:11.701Z,1.90
2023-03-24T08:17:13.671Z,2.07
2023-03-24T08:20:16.563Z,2.03
2023-03-24T08:23:18.473Z,2.00
2023-03-24T08:26:20.435Z,2.10
2023-03-24T08:29:22.299Z,1.97
2023-03-24T08:32:24.788Z,1.70
2023-03-24T08:35:29.602Z,2.00
2023-03-24T08:38:31.911Z,2.17
2023-03-24T08:41:36.764Z,2.30
2023-03-24T08:44:38.696Z,2.20
2023-03-24T08:47:40.883Z,2.00
2023-03-24T08:50:43.098Z,2.20
2023-03-24T08:53:45.047Z,1.67
2023-03-24T08:56:47.132Z,2.03
2023-03-24T08:59:51.261Z,1.77
2023-03-24T09:02:54.781Z,1.93
2023-03-24T09:05:57.699Z,1.90
2023-03-24T09:09:00.020Z,1.80
2023-03-24T09:12:01.960Z,1.80
2023-03-24T09:15:05.855Z,1.93
2023-03-24T09:18:08.429Z,1.90
2023-03-24T09:21:10.607Z,2.17
2023-03-24T09:24:12.991Z,1.97
2023-03-24T09:27:16.461Z,1.70
2023-03-24T09:30:19.133Z,2.53
2023-03-24T09:33:21.063Z,1.83
2023-03-24T09:36:23.086Z,1.90
2023-03-24T09:39:25.738Z,1.67
2023-03-24T09:42:31.477Z,2.30
2023-03-24T09:45:56.206Z,2.13
2023-03-24T09:48:58.418Z,2.07
2023-03-24T09:52:08.225Z,2.60
2023-03-24T09:55:17.668Z,1.60
2023-03-24T09:58:20.602Z,1.77
2023-03-24T10:01:22.640Z,1.65
2023-03-24T10:04:29.125Z,1.77
2023-03-24T10:08:00.530Z,2.20
2023-03-24T10:11:21.531Z,1.60
2023-03-24T10:14:50.132Z,1.77
2023-03-24T10:18:01.794Z,2.43
2023-03-24T10:21:25.162Z,3.67
2023-03-24T10:25:03.973Z,3.20
2023-03-24T10:28:19.505Z,3.73
2023-03-24T10:31:29.882Z,3.60
2023-03-24T10:34:34.179Z,3.53
2023-03-24T10:37:37.165Z,3.03
2023-03-24T10:40:41.657Z,3.47
2023-03-24T10:43:45.180Z,3.20
2023-03-24T10:46:50.242Z,3.03
2023-03-24T10:49:54.588Z,3.40
2023-03-24T10:52:57.990Z,3.57
2023-03-24T10:56:00.270Z,3.80
2023-03-24T10:59:02.760Z,3.37
2023-03-24T11:02:18.675Z,3.20
2023-03-24T11:05:29.186Z,3.70
2023-03-24T11:08:39.946Z,3.37
2023-03-24T11:11:42.462Z,3.37
2023-03-24T11:14:46.221Z,4.07
2023-03-24T11:17:56.769Z,4.17
2023-03-24T11:21:04.541Z,3.83
2023-03-24T11:24:20.858Z,3.20
2023-03-24T11:27:22.848Z,4.17
2023-03-24T11:30:26.744Z,3.40
2023-03-24T11:33:35.227Z,3.50
2023-03-24T11:36:59.562Z,3.47
2023-03-24T11:40:14.095Z,4.07
2023-03-24T11:43:21.287Z,3.90
2023-03-24T11:46:23.735Z,4.27
2023-03-24T11:49:32.471Z,3.60
2023-03-24T11:52:38.707Z,3.90
2023-03-24T11:55:53.985Z,3.40
2023-03-24T11:59:20.001Z,3.90
2023-03-24T12:02:50.530Z,3.90
2023-03-24T12:06:19.827Z,3.57
2023-03-24T12:09:22.248Z,3.77
2023-03-24T12:12:51.995Z,3.33
2023-03-24T12:15:57.779Z,3.90
2023-03-24T12:19:21.656Z,4.07
2023-03-24T12:22:44.808Z,3.93
2023-03-24T12:25:56.549Z,3.83
2023-03-24T12:29:30.072Z,3.80
2023-03-24T12:32:43.536Z,3.80
2023-03-24T12:35:51.593Z,3.73
2023-03-24T12:39:02.696Z,4.20
2023-03-24T12:42:12.849Z,3.77
2023-03-24T12:45:30.739Z,3.73
2023-03-24T12:48:51.786Z,3.73
2023-03-24T12:51:56.792Z,3.63
2023-03-24T12:55:04.949Z,3.77
2023-03-24T12:58:38.903Z,3.80
2023-03-24T13:01:45.565Z,3.43
2023-03-24T13:04:48.566Z,3.57
2023-03-24T13:07:58.206Z,3.83
2023-03-24T13:11:05.019Z,3.47
2023-03-24T13:14:13.583Z,3.53
2023-03-24T13:17:22.892Z,4.00
2023-03-24T13:20:33.129Z,3.30
2023-03-24T13:24:05.185Z,3.30
2023-03-24T13:27:27.551Z,3.37
2023-03-24T13:30:35.656Z,3.67
2023-03-24T13:33:38.299Z,3.83
2023-03-24T13:36:45.216Z,3.57
2023-03-24T13:39:47.572Z,3.47
2023-03-24T13:43:20.755Z,3.60
2023-03-24T13:46:22.760Z,2.97
2023-03-24T13:49:24.787Z,3.63
2023-03-24T13:52:35.456Z,3.53
2023-03-24T13:55:40.001Z,3.60
2023-03-24T13:59:07.441Z,3.70
2023-03-24T14:02:29.744Z,4.30
2023-03-24T14:06:02.011Z,3.90
2023-03-24T14:09:07.437Z,3.60
2023-03-24T14:12:18.372Z,3.70
2023-03-24T14:15:50.692Z,3.43
2023-03-24T14:19:28.610Z,3.90
2023-03-24T14:22:33.879Z,3.00
2023-03-24T14:25:36.959Z,3.50
2023-03-24T14:28:44.662Z,4.05
2023-03-24T14:31:51.045Z,3.28
2023-03-24T14:35:00.613Z,3.80
2023-03-24T14:38:05.677Z,3.83
2023-03-24T14:41:15.391Z,4.27
2023-03-24T14:44:53.691Z,3.97
2023-03-24T14:48:03.171Z,4.67
2023-03-24T14:51:14.479Z,4.37
2023-03-24T14:54:20.013Z,4.90
2023-03-24T14:57:23.438Z,4.13
2023-03-24T15:00:57.911Z,3.50
2023-03-24T15:04:09.172Z,4.10
2023-03-24T15:07:14.396Z,3.73
2023-03-24T15:10:18.087Z,4.53
2023-03-24T15:13:33.845Z,3.93
2023-03-24T15:16:37.380Z,4.87
2023-03-24T15:19:39.425Z,4.63
2023-03-24T15:22:43.065Z,4.93
2023-03-24T15:25:45.735Z,4.90
2023-03-24T15:28:47.809Z,4.57
2023-03-24T15:31:50.632Z,4.60
2023-03-24T15:34:59.049Z,4.60
2023-03-24T15:38:01.726Z,4.67
2023-03-24T15:41:06.376Z,5.17
2023-03-24T15:44:09.331Z,4.20
2023-03-24T15:47:22.403Z,4.60
2023-03-24T15:50:36.404Z,4.17
2023-03-24T15:53:49.490Z,4.73
2023-03-24T15:57:27.665Z,4.20
2023-03-24T16:00:36.392Z,4.60
2023-03-24T16:03:38.362Z,3.50
2023-03-24T16:06:44.126Z,3.10
2023-03-24T16:09:58.575Z,3.37
2023-03-24T16:13:17.513Z,4.33
2023-03-24T16:16:25.239Z,4.50
2023-03-24T16:19:27.470Z,4.00
2023-03-24T16:22:29.480Z,3.43
2023-03-24T16:25:32.400Z,3.73
2023-03-24T16:28:34.650Z,4.37
2023-03-24T16:31:36.875Z,4.30
2023-03-24T16:34:38.755Z,4.30
2023-03-24T16:37:42.650Z,4.17
2023-03-24T16:40:47.697Z,4.20
2023-03-24T16:43:50.619Z,5.33
2023-03-24T16:46:54.179Z,3.17
2023-03-24T16:49:56.297Z,4.97
2023-03-24T16:52:58.484Z,4.47
2023-03-24T16:56:00.518Z,4.83
2023-03-24T16:59:03.130Z,1.50
2023-03-24T17:02:06.725Z,0.70
2023-03-24T17:05:22.713Z,0.70
2023-03-24T17:08:24.689Z,0.80
2023-03-24T17:11:58.625Z,0.70
2023-03-24T17:15:00.946Z,0.60
2023-03-24T17:18:05.476Z,1.40
2023-03-24T17:21:19.290Z,1.43
2023-03-24T17:24:21.458Z,1.17
2023-03-24T17:27:24.167Z,0.60
2023-03-24T17:30:28.013Z,0.30
2023-03-24T17:33:30.350Z,0.47
2023-03-24T17:36:32.249Z,0.80
2023-03-24T17:39:34.402Z,0.70
2023-03-24T17:42:37.645Z,1.13
2023-03-24T17:45:42.741Z,1.07
2023-03-24T17:48:46.212Z,3.53
2023-03-24T17:51:49.263Z,0.87
2023-03-24T17:54:51.186Z,0.97
2023-03-24T17:57:53.165Z,0.50
2023-03-24T18:00:58.330Z,0.80
2023-03-24T18:04:00.713Z,0.57
2023-03-24T18:07:03.006Z,0.70
2023-03-24T18:10:05.554Z,0.70
2023-03-24T18:13:07.968Z,0.70
2023-03-24T18:16:20.755Z,1.50
2023-03-24T18:19:23.781Z,0.87
2023-03-24T18:22:25.832Z,4.97
2023-03-24T18:25:28.025Z,1.40
2023-03-24T18:28:31.009Z,1.50
2023-03-24T18:31:33.004Z,0.90
2023-03-24T18:34:36.285Z,0.80
2023-03-24T18:37:38.710Z,0.80
2023-03-24T18:40:40.652Z,0.73
2023-03-24T18:43:45.235Z,0.50
2023-03-24T18:46:47.236Z,0.50
2023-03-24T18:49:49.090Z,1.70
2023-03-24T18:52:51.168Z,4.23
2023-03-24T18:55:53.163Z,0.70
2023-03-24T18:58:56.289Z,0.37
2023-03-24T19:02:00.689Z,0.40
2023-03-24T19:05:04.549Z,0.20
2023-03-24T19:08:07.552Z,0.30
2023-03-24T19:11:10.070Z,0.30
2023-03-24T19:14:12.116Z,0.20
2023-03-24T19:17:14.591Z,0.20
2023-03-24T19:20:16.696Z,0.57
2023-03-24T19:23:19.023Z,2.40
2023-03-24T19:26:21.073Z,0.50
2023-03-24T19:29:23.058Z,0.13
2023-03-24T19:32:24.975Z,0.37
2023-03-24T19:35:27.386Z,0.50
2023-03-24T19:38:31.214Z,0.40
2023-03-24T19:41:33.527Z,0.70
2023-03-24T19:44:35.861Z,0.40
2023-03-24T19:47:38.046Z,0.33
2023-03-24T19:50:40.104Z,0.30
2023-03-24T19:53:42.120Z,0.30
2023-03-24T19:56:44.042Z,0.20
2023-03-24T19:59:46.535Z,0.27
2023-03-24T20:02:48.613Z,0.73
2023-03-24T20:05:51.218Z,0.67
2023-03-24T20:08:53.235Z,0.30
2023-03-24T20:11:55.285Z,0.53
2023-03-24T20:14:57.497Z,0.80
2023-03-24T20:17:59.694Z,0.57
2023-03-24T20:21:04.533Z,0.63
2023-03-24T20:24:07.739Z,0.80
2023-03-24T20:27:09.593Z,0.47
2023-03-24T20:30:13.679Z,0.30
2023-03-24T20:33:15.769Z,0.67
2023-03-24T20:36:18.109Z,0.50
2023-03-24T20:39:20.690Z,0.50
2023-03-24T20:42:25.288Z,0.30
2023-03-24T20:45:27.718Z,0.50
2023-03-24T20:48:29.790Z,0.30
2023-03-24T20:51:31.714Z,0.30
2023-03-24T20:54:33.715Z,0.30
2023-03-24T20:57:36.429Z,0.30
2023-03-24T21:00:42.449Z,0.30
2023-03-24T21:03:44.378Z,0.30
2023-03-24T21:06:50.388Z,0.20
2023-03-24T21:09:52.347Z,0.20
2023-03-24T21:12:54.916Z,0.30
2023-03-24T21:15:56.912Z,0.20
2023-03-24T21:19:01.986Z,0.40
2023-03-24T21:22:03.908Z,0.40
2023-03-24T21:25:07.559Z,0.63
2023-03-24T21:28:10.218Z,0.50
2023-03-24T21:31:19.656Z,0.60
2023-03-24T21:34:21.600Z,0.60
2023-03-24T21:37:26.369Z,0.50
2023-03-24T21:40:28.428Z,0.50
2023-03-24T21:43:31.188Z,0.73
2023-03-24T21:46:33.382Z,0.50
2023-03-24T21:49:35.809Z,0.40
2023-03-24T21:52:41.843Z,0.53
2023-03-24T21:55:55.979Z,0.50
2023-03-24T21:58:58.193Z,0.60
2023-03-24T22:02:00.270Z,0.30
2023-03-24T22:05:02.954Z,0.30
2023-03-24T22:08:06.784Z,0.20
2023-03-24T22:11:09.417Z,0.30
2023-03-24T22:14:12.831Z,0.20
2023-03-24T22:17:14.703Z,0.10
2023-03-24T22:20:17.167Z,0.33
2023-03-24T22:23:20.375Z,0.30
2023-03-24T22:26:22.337Z,0.20
2023-03-24T22:29:31.428Z,0.50
2023-03-24T22:32:33.917Z,0.30
2023-03-24T22:35:39.597Z,0.30
2023-03-24T22:38:42.639Z,0.20
2023-03-24T22:41:45.118Z,0.20
2023-03-24T22:44:47.300Z,0.20
2023-03-24T22:47:49.262Z,0.40
2023-03-24T22:50:52.003Z,0.20
2023-03-24T22:53:53.955Z,0.20
2023-03-24T22:56:56.831Z,0.20
2023-03-24T23:00:01.999Z,0.20
2023-03-24T23:03:04.507Z,0.20
2023-03-24T23:06:07.231Z,0.20
2023-03-24T23:09:09.776Z,0.10
2023-03-24T23:12:13.740Z,0.10
2023-03-24T23:15:18.718Z,0.50
2023-03-24T23:18:20.977Z,0.40
2023-03-24T23:21:23.129Z,0.70
2023-03-24T23:24:25.002Z,0.53
2023-03-24T23:27:27.034Z,0.60
2023-03-24T23:30:28.900Z,0.20
2023-03-24T23:33:31.116Z,0.30
2023-03-24T23:36:34.680Z,0.50
2023-03-24T23:39:37.730Z,0.60
2023-03-24T23:42:41.983Z,0.80
2023-03-24T23:45:46.922Z,0.33
2023-03-24T23:48:48.929Z,0.20
2023-03-24T23:51:50.919Z,0.20
2023-03-24T23:54:53.489Z,0.30
2023-03-24T23:57:55.578Z,0.60
